Aérodrome :
LOGIN :

S'inscrire | Disclaimer

   EN    FR    IT 

 










Légende :    VFR   VFR Marginal   IFR   IFR Intensif   IFR Très Intensif
Visi : 
Plafond : 
>= 8 km
>= 3000ft
5 à 8 km
1000 à 3000 ft
1500m à 5 km
500 à 1000 ft
800 à 1500m
200 à 500 ft
< 800m
< 200 ft
Symboles :   Orages  Brouillard  Fortes neiges  Fortes précipitations  Vent > 20 kt
SIGMETs :   Divers  Orages  Givrage  Turbulence  Onde Orograph.  Cendres Volcan.






- Altitude de l'aérodrome : 226 ft
- Code IATA : BEX


EGUB - RAF Benson

DERNIER METAR :
  • 210920Z AUTO 33008KT 9999 FEW023/// OVC048/// 18/12 Q1010

METARs EXPIRÉS :
  • 210850Z AUTO 33006KT 9999 OVC046/// 17/12 Q1010
  • 210820Z AUTO 32008KT 9999 SCT016/// BKN044/// 17/12 Q1010
  • 210750Z AUTO 32008KT 9999 BKN015/// BKN037/// 16/13 Q1010
  • 210720Z AUTO 36006KT 9999 // BKN012/// OVC029/// 16/13 Q1010
  • 210650Z AUTO 35006KT 9999 // SCT010/// BKN025/// 16/14 Q1009
  • 210620Z AUTO 33007KT 9999 BKN012/// BKN031/// 16/14 Q1009
  • 210550Z AUTO 34004KT 9999 SCT013/// BKN027/// 16/14 Q1009
  • 210520Z AUTO 33005KT 9999 // FEW014/// OVC027/// 16/14 Q1009
  • 210450Z AUTO 34005KT 9999 // FEW006/// BKN010/// BKN027/// 16/15 Q1008

Prévision TAF périmée.
ATIS : +44 1491-837766 (x7524)



MET'MAP, la Météo Aéronautique d'un coup d'oeil ! - Copyright ORBIFLY Décembre 2007 - Disclaimer

ORBIFLY MET'MAP TEAM :

Programmation & Développement : Alexandra Zaïnal
Sur une idée originale de : Baudouin d'Aumeries
Soutien technique & logistique : Manuel Goepfert
Assistance : Marc-Olivier Méhu




SOURCES & CREDITS :

   NOAA